sensor_id;sensor_type;location;lat;lon;timestamp;P1;durP1;ratioP1;P2;durP2;ratioP2
47155;SDS011;32908;52.344;16.858;2022-12-18T00:01:14;58.13;;;21.63;;
47155;SDS011;32908;52.344;16.858;2022-12-18T00:03:44;54.93;;;21.97;;
47155;SDS011;32908;52.344;16.858;2022-12-18T00:06:12;50.97;;;20.53;;
47155;SDS011;32908;52.344;16.858;2022-12-18T00:08:40;54.67;;;21.53;;
47155;SDS011;32908;52.344;16.858;2022-12-18T00:11:10;52.37;;;20.87;;
47155;SDS011;32908;52.344;16.858;2022-12-18T00:13:39;48.87;;;21.37;;
47155;SDS011;32908;52.344;16.858;2022-12-18T00:16:08;55.00;;;20.67;;
47155;SDS011;32908;52.344;16.858;2022-12-18T00:18:38;58.03;;;20.67;;
47155;SDS011;32908;52.344;16.858;2022-12-18T00:21:06;52.57;;;20.33;;
47155;SDS011;32908;52.344;16.858;2022-12-18T00:23:35;50.90;;;20.87;;
47155;SDS011;32908;52.344;16.858;2022-12-18T00:26:04;56.63;;;21.53;;
47155;SDS011;32908;52.344;16.858;2022-12-18T00:28:33;50.57;;;21.87;;
47155;SDS011;32908;52.344;16.858;2022-12-18T00:31:01;58.67;;;23.53;;
47155;SDS011;32908;52.344;16.858;2022-12-18T00:33:30;58.67;;;24.80;;
47155;SDS011;32908;52.344;16.858;2022-12-18T00:36:00;58.57;;;22.50;;
47155;SDS011;32908;52.344;16.858;2022-12-18T00:38:28;71.40;;;25.97;;
47155;SDS011;32908;52.344;16.858;2022-12-18T00:40:56;59.87;;;24.60;;
47155;SDS011;32908;52.344;16.858;2022-12-18T00:43:24;65.70;;;26.40;;
47155;SDS011;32908;52.344;16.858;2022-12-18T00:45:52;53.70;;;23.83;;
47155;SDS011;32908;52.344;16.858;2022-12-18T00:48:20;60.37;;;25.00;;
47155;SDS011;32908;52.344;16.858;2022-12-18T00:50:48;56.20;;;23.53;;
47155;SDS011;32908;52.344;16.858;2022-12-18T00:53:16;54.67;;;23.17;;
47155;SDS011;32908;52.344;16.858;2022-12-18T00:55:45;55.50;;;23.67;;
47155;SDS011;32908;52.344;16.858;2022-12-18T00:58:13;54.73;;;23.90;;
47155;SDS011;32908;52.344;16.858;2022-12-18T01:00:42;55.20;;;23.33;;
47155;SDS011;32908;52.344;16.858;2022-12-18T01:03:11;61.30;;;25.50;;
47155;SDS011;32908;52.344;16.858;2022-12-18T01:05:40;51.67;;;21.67;;
47155;SDS011;32908;52.344;16.858;2022-12-18T01:08:08;56.47;;;23.40;;
47155;SDS011;32908;52.344;16.858;2022-12-18T01:10:36;53.30;;;21.93;;
47155;SDS011;32908;52.344;16.858;2022-12-18T01:13:03;56.60;;;21.80;;
47155;SDS011;32908;52.344;16.858;2022-12-18T01:15:31;52.23;;;22.57;;
47155;SDS011;32908;52.344;16.858;2022-12-18T01:17:59;46.33;;;19.73;;
47155;SDS011;32908;52.344;16.858;2022-12-18T01:20:27;48.70;;;20.07;;
47155;SDS011;32908;52.344;16.858;2022-12-18T01:22:55;44.67;;;19.67;;
47155;SDS011;32908;52.344;16.858;2022-12-18T01:25:23;46.33;;;19.97;;
47155;SDS011;32908;52.344;16.858;2022-12-18T01:27:51;48.10;;;18.37;;
47155;SDS011;32908;52.344;16.858;2022-12-18T01:30:19;42.93;;;17.73;;
47155;SDS011;32908;52.344;16.858;2022-12-18T01:32:47;40.43;;;17.40;;
47155;SDS011;32908;52.344;16.858;2022-12-18T01:35:15;36.87;;;15.80;;
47155;SDS011;32908;52.344;16.858;2022-12-18T01:37:42;45.17;;;18.60;;
47155;SDS011;32908;52.344;16.858;2022-12-18T01:40:10;42.23;;;17.63;;
47155;SDS011;32908;52.344;16.858;2022-12-18T01:42:38;45.13;;;18.10;;
47155;SDS011;32908;52.344;16.858;2022-12-18T01:45:08;42.53;;;18.50;;
47155;SDS011;32908;52.344;16.858;2022-12-18T01:47:50;44.07;;;18.30;;
47155;SDS011;32908;52.344;16.858;2022-12-18T01:50:20;43.83;;;18.43;;
47155;SDS011;32908;52.344;16.858;2022-12-18T01:52:51;42.73;;;18.80;;
47155;SDS011;32908;52.344;16.858;2022-12-18T01:55:20;44.17;;;19.70;;
47155;SDS011;32908;52.344;16.858;2022-12-18T01:57:51;44.53;;;18.77;;
47155;SDS011;32908;52.344;16.858;2022-12-18T02:00:22;50.27;;;19.87;;
47155;SDS011;32908;52.344;16.858;2022-12-18T02:02:51;45.70;;;17.93;;
47155;SDS011;32908;52.344;16.858;2022-12-18T02:05:20;47.13;;;19.97;;
47155;SDS011;32908;52.344;16.858;2022-12-18T02:07:55;44.70;;;18.33;;
47155;SDS011;32908;52.344;16.858;2022-12-18T02:10:27;51.70;;;19.97;;
47155;SDS011;32908;52.344;16.858;2022-12-18T02:13:03;49.30;;;20.77;;
47155;SDS011;32908;52.344;16.858;2022-12-18T02:15:38;50.27;;;20.53;;
47155;SDS011;32908;52.344;16.858;2022-12-18T02:18:10;47.17;;;19.63;;
47155;SDS011;32908;52.344;16.858;2022-12-18T02:20:40;55.13;;;22.47;;
47155;SDS011;32908;52.344;16.858;2022-12-18T02:23:15;50.63;;;22.10;;
47155;SDS011;32908;52.344;16.858;2022-12-18T02:25:53;54.17;;;22.00;;
47155;SDS011;32908;52.344;16.858;2022-12-18T02:28:30;54.13;;;21.17;;
47155;SDS011;32908;52.344;16.858;2022-12-18T02:30:59;57.60;;;22.23;;
47155;SDS011;32908;52.344;16.858;2022-12-18T02:33:29;62.37;;;22.97;;
47155;SDS011;32908;52.344;16.858;2022-12-18T02:35:58;60.80;;;24.00;;
47155;SDS011;32908;52.344;16.858;2022-12-18T02:38:27;60.67;;;22.43;;
47155;SDS011;32908;52.344;16.858;2022-12-18T02:40:56;53.80;;;21.97;;
47155;SDS011;32908;52.344;16.858;2022-12-18T02:43:25;58.83;;;21.67;;
47155;SDS011;32908;52.344;16.858;2022-12-18T02:45:53;59.87;;;23.17;;
47155;SDS011;32908;52.344;16.858;2022-12-18T02:48:23;57.23;;;22.43;;
47155;SDS011;32908;52.344;16.858;2022-12-18T02:50:54;58.30;;;22.37;;
47155;SDS011;32908;52.344;16.858;2022-12-18T02:53:35;54.40;;;21.77;;
47155;SDS011;32908;52.344;16.858;2022-12-18T02:56:06;58.10;;;22.60;;
47155;SDS011;32908;52.344;16.858;2022-12-18T02:58:37;56.73;;;22.17;;
47155;SDS011;32908;52.344;16.858;2022-12-18T03:01:10;50.13;;;20.97;;
47155;SDS011;32908;52.344;16.858;2022-12-18T03:03:43;51.13;;;21.53;;
47155;SDS011;32908;52.344;16.858;2022-12-18T03:06:17;54.67;;;21.63;;
47155;SDS011;32908;52.344;16.858;2022-12-18T03:08:51;50.77;;;21.57;;
47155;SDS011;32908;52.344;16.858;2022-12-18T03:11:21;56.23;;;23.83;;
47155;SDS011;32908;52.344;16.858;2022-12-18T03:14:09;56.07;;;21.97;;
47155;SDS011;32908;52.344;16.858;2022-12-18T03:16:38;55.93;;;21.77;;
47155;SDS011;32908;52.344;16.858;2022-12-18T03:19:08;49.27;;;21.83;;
47155;SDS011;32908;52.344;16.858;2022-12-18T03:21:42;49.60;;;21.10;;
47155;SDS011;32908;52.344;16.858;2022-12-18T03:24:11;53.33;;;21.77;;
47155;SDS011;32908;52.344;16.858;2022-12-18T03:26:40;48.40;;;18.80;;
47155;SDS011;32908;52.344;16.858;2022-12-18T03:29:12;47.17;;;20.37;;
47155;SDS011;32908;52.344;16.858;2022-12-18T03:31:45;51.37;;;21.83;;
47155;SDS011;32908;52.344;16.858;2022-12-18T03:34:17;50.13;;;21.13;;
47155;SDS011;32908;52.344;16.858;2022-12-18T03:36:48;50.30;;;20.60;;
47155;SDS011;32908;52.344;16.858;2022-12-18T03:39:16;50.17;;;21.37;;
47155;SDS011;32908;52.344;16.858;2022-12-18T03:41:44;61.93;;;23.33;;
47155;SDS011;32908;52.344;16.858;2022-12-18T03:44:19;60.20;;;22.60;;
47155;SDS011;32908;52.344;16.858;2022-12-18T03:46:51;58.97;;;24.30;;
47155;SDS011;32908;52.344;16.858;2022-12-18T03:49:25;58.20;;;23.23;;
47155;SDS011;32908;52.344;16.858;2022-12-18T03:51:57;49.47;;;21.40;;
47155;SDS011;32908;52.344;16.858;2022-12-18T03:54:28;61.37;;;24.60;;
47155;SDS011;32908;52.344;16.858;2022-12-18T03:56:58;61.37;;;23.30;;
47155;SDS011;32908;52.344;16.858;2022-12-18T03:59:28;55.67;;;21.37;;
47155;SDS011;32908;52.344;16.858;2022-12-18T04:01:57;58.20;;;22.30;;
47155;SDS011;32908;52.344;16.858;2022-12-18T04:04:26;56.03;;;22.07;;
47155;SDS011;32908;52.344;16.858;2022-12-18T04:06:55;53.50;;;21.93;;
47155;SDS011;32908;52.344;16.858;2022-12-18T04:09:23;53.80;;;22.00;;
47155;SDS011;32908;52.344;16.858;2022-12-18T04:11:51;64.00;;;25.07;;
47155;SDS011;32908;52.344;16.858;2022-12-18T04:14:19;48.70;;;21.83;;
47155;SDS011;32908;52.344;16.858;2022-12-18T04:16:47;56.97;;;22.43;;
47155;SDS011;32908;52.344;16.858;2022-12-18T04:19:15;58.70;;;24.07;;
47155;SDS011;32908;52.344;16.858;2022-12-18T04:21:43;53.33;;;21.87;;
47155;SDS011;32908;52.344;16.858;2022-12-18T04:24:11;55.13;;;21.87;;
47155;SDS011;32908;52.344;16.858;2022-12-18T04:26:39;50.27;;;20.63;;
47155;SDS011;32908;52.344;16.858;2022-12-18T04:29:07;53.30;;;20.00;;
47155;SDS011;32908;52.344;16.858;2022-12-18T04:31:35;50.83;;;20.07;;
47155;SDS011;32908;52.344;16.858;2022-12-18T04:34:02;50.70;;;20.33;;
47155;SDS011;32908;52.344;16.858;2022-12-18T04:36:30;43.30;;;19.10;;
47155;SDS011;32908;52.344;16.858;2022-12-18T04:38:59;45.17;;;18.43;;
47155;SDS011;32908;52.344;16.858;2022-12-18T04:41:26;46.50;;;18.87;;
47155;SDS011;32908;52.344;16.858;2022-12-18T04:43:54;43.03;;;18.60;;
47155;SDS011;32908;52.344;16.858;2022-12-18T04:46:22;49.13;;;19.73;;
47155;SDS011;32908;52.344;16.858;2022-12-18T04:48:50;43.20;;;19.50;;
47155;SDS011;32908;52.344;16.858;2022-12-18T04:51:18;51.07;;;19.57;;
47155;SDS011;32908;52.344;16.858;2022-12-18T04:53:45;46.90;;;19.00;;
47155;SDS011;32908;52.344;16.858;2022-12-18T04:56:14;49.23;;;19.10;;
47155;SDS011;32908;52.344;16.858;2022-12-18T04:58:43;52.40;;;18.43;;
47155;SDS011;32908;52.344;16.858;2022-12-18T05:01:12;46.30;;;19.57;;
47155;SDS011;32908;52.344;16.858;2022-12-18T05:03:40;50.00;;;19.47;;
47155;SDS011;32908;52.344;16.858;2022-12-18T05:06:09;48.87;;;20.53;;
47155;SDS011;32908;52.344;16.858;2022-12-18T05:08:37;48.17;;;19.03;;
47155;SDS011;32908;52.344;16.858;2022-12-18T05:11:05;47.13;;;20.03;;
47155;SDS011;32908;52.344;16.858;2022-12-18T05:13:35;46.83;;;18.90;;
47155;SDS011;32908;52.344;16.858;2022-12-18T05:16:04;48.43;;;19.23;;
47155;SDS011;32908;52.344;16.858;2022-12-18T05:18:33;40.87;;;17.27;;
47155;SDS011;32908;52.344;16.858;2022-12-18T05:21:01;45.80;;;18.53;;
47155;SDS011;32908;52.344;16.858;2022-12-18T05:23:29;49.70;;;19.07;;
47155;SDS011;32908;52.344;16.858;2022-12-18T05:25:57;48.43;;;19.80;;
47155;SDS011;32908;52.344;16.858;2022-12-18T05:28:27;41.67;;;18.13;;
47155;SDS011;32908;52.344;16.858;2022-12-18T05:30:56;44.73;;;18.07;;
47155;SDS011;32908;52.344;16.858;2022-12-18T05:33:25;43.13;;;16.47;;
47155;SDS011;32908;52.344;16.858;2022-12-18T05:35:55;39.70;;;17.07;;
47155;SDS011;32908;52.344;16.858;2022-12-18T05:38:25;42.73;;;17.03;;
47155;SDS011;32908;52.344;16.858;2022-12-18T05:40:54;44.03;;;18.03;;
47155;SDS011;32908;52.344;16.858;2022-12-18T05:43:24;46.80;;;18.50;;
47155;SDS011;32908;52.344;16.858;2022-12-18T05:45:54;43.17;;;16.83;;
47155;SDS011;32908;52.344;16.858;2022-12-18T05:48:23;44.93;;;17.73;;
47155;SDS011;32908;52.344;16.858;2022-12-18T05:50:50;40.00;;;16.53;;
47155;SDS011;32908;52.344;16.858;2022-12-18T05:53:19;42.87;;;15.67;;
47155;SDS011;32908;52.344;16.858;2022-12-18T05:55:47;39.87;;;16.87;;
47155;SDS011;32908;52.344;16.858;2022-12-18T05:58:16;39.57;;;15.90;;
47155;SDS011;32908;52.344;16.858;2022-12-18T06:00:44;43.60;;;18.03;;
47155;SDS011;32908;52.344;16.858;2022-12-18T06:03:13;38.80;;;16.17;;
47155;SDS011;32908;52.344;16.858;2022-12-18T06:05:41;44.90;;;16.57;;
47155;SDS011;32908;52.344;16.858;2022-12-18T06:08:09;46.03;;;18.53;;
47155;SDS011;32908;52.344;16.858;2022-12-18T06:10:38;45.30;;;17.77;;
47155;SDS011;32908;52.344;16.858;2022-12-18T06:13:06;47.27;;;18.33;;
47155;SDS011;32908;52.344;16.858;2022-12-18T06:15:36;42.07;;;16.20;;
47155;SDS011;32908;52.344;16.858;2022-12-18T06:18:04;43.87;;;17.53;;
47155;SDS011;32908;52.344;16.858;2022-12-18T06:20:32;43.60;;;17.30;;
47155;SDS011;32908;52.344;16.858;2022-12-18T06:23:02;41.60;;;16.50;;
47155;SDS011;32908;52.344;16.858;2022-12-18T06:25:30;43.13;;;16.07;;
47155;SDS011;32908;52.344;16.858;2022-12-18T06:27:58;46.30;;;17.73;;
47155;SDS011;32908;52.344;16.858;2022-12-18T06:30:26;39.07;;;16.83;;
47155;SDS011;32908;52.344;16.858;2022-12-18T06:32:54;43.70;;;18.60;;
47155;SDS011;32908;52.344;16.858;2022-12-18T06:35:21;43.00;;;16.37;;
47155;SDS011;32908;52.344;16.858;2022-12-18T06:37:49;52.03;;;18.50;;
47155;SDS011;32908;52.344;16.858;2022-12-18T06:40:17;50.23;;;20.53;;
47155;SDS011;32908;52.344;16.858;2022-12-18T06:42:45;48.50;;;18.70;;
47155;SDS011;32908;52.344;16.858;2022-12-18T06:45:13;47.63;;;19.67;;
47155;SDS011;32908;52.344;16.858;2022-12-18T06:47:41;47.63;;;19.00;;
47155;SDS011;32908;52.344;16.858;2022-12-18T06:50:09;50.57;;;21.00;;
47155;SDS011;32908;52.344;16.858;2022-12-18T06:52:37;51.03;;;19.73;;
47155;SDS011;32908;52.344;16.858;2022-12-18T06:55:07;56.17;;;20.87;;
47155;SDS011;32908;52.344;16.858;2022-12-18T06:57:37;55.03;;;22.10;;
47155;SDS011;32908;52.344;16.858;2022-12-18T07:00:06;54.10;;;20.93;;
47155;SDS011;32908;52.344;16.858;2022-12-18T07:02:34;54.53;;;20.50;;
47155;SDS011;32908;52.344;16.858;2022-12-18T07:05:03;51.77;;;20.33;;
47155;SDS011;32908;52.344;16.858;2022-12-18T07:07:32;48.90;;;20.10;;
47155;SDS011;32908;52.344;16.858;2022-12-18T07:10:00;63.30;;;22.13;;
47155;SDS011;32908;52.344;16.858;2022-12-18T07:12:28;55.33;;;21.40;;
47155;SDS011;32908;52.344;16.858;2022-12-18T07:14:56;57.63;;;22.37;;
47155;SDS011;32908;52.344;16.858;2022-12-18T07:17:24;54.23;;;20.63;;
47155;SDS011;32908;52.344;16.858;2022-12-18T07:19:52;59.23;;;22.43;;
47155;SDS011;32908;52.344;16.858;2022-12-18T07:22:19;56.37;;;21.97;;
47155;SDS011;32908;52.344;16.858;2022-12-18T07:24:47;57.60;;;20.17;;
47155;SDS011;32908;52.344;16.858;2022-12-18T07:27:15;52.17;;;20.40;;
47155;SDS011;32908;52.344;16.858;2022-12-18T07:29:43;62.67;;;22.03;;
47155;SDS011;32908;52.344;16.858;2022-12-18T07:32:11;59.03;;;21.27;;
47155;SDS011;32908;52.344;16.858;2022-12-18T07:34:39;58.13;;;23.03;;
47155;SDS011;32908;52.344;16.858;2022-12-18T07:37:06;62.43;;;25.10;;
47155;SDS011;32908;52.344;16.858;2022-12-18T07:39:34;56.60;;;23.07;;
47155;SDS011;32908;52.344;16.858;2022-12-18T07:42:02;53.47;;;20.77;;
47155;SDS011;32908;52.344;16.858;2022-12-18T07:44:49;58.00;;;22.23;;
47155;SDS011;32908;52.344;16.858;2022-12-18T07:47:16;66.27;;;24.80;;
47155;SDS011;32908;52.344;16.858;2022-12-18T07:49:44;60.53;;;22.57;;
47155;SDS011;32908;52.344;16.858;2022-12-18T07:52:12;55.97;;;21.33;;
47155;SDS011;32908;52.344;16.858;2022-12-18T07:54:40;59.17;;;20.60;;
47155;SDS011;32908;52.344;16.858;2022-12-18T07:57:08;57.43;;;21.43;;
47155;SDS011;32908;52.344;16.858;2022-12-18T07:59:36;50.90;;;20.83;;
47155;SDS011;32908;52.344;16.858;2022-12-18T08:02:04;54.40;;;20.57;;
47155;SDS011;32908;52.344;16.858;2022-12-18T08:04:32;54.93;;;21.83;;
47155;SDS011;32908;52.344;16.858;2022-12-18T08:07:00;52.43;;;19.80;;
47155;SDS011;32908;52.344;16.858;2022-12-18T08:09:28;49.30;;;19.20;;
47155;SDS011;32908;52.344;16.858;2022-12-18T08:11:56;48.27;;;19.80;;
47155;SDS011;32908;52.344;16.858;2022-12-18T08:14:23;45.47;;;18.80;;
47155;SDS011;32908;52.344;16.858;2022-12-18T08:16:52;50.60;;;19.53;;
47155;SDS011;32908;52.344;16.858;2022-12-18T08:19:19;53.70;;;19.93;;
47155;SDS011;32908;52.344;16.858;2022-12-18T08:21:47;48.43;;;19.70;;
47155;SDS011;32908;52.344;16.858;2022-12-18T08:24:15;48.10;;;19.63;;
47155;SDS011;32908;52.344;16.858;2022-12-18T08:26:43;50.33;;;20.70;;
47155;SDS011;32908;52.344;16.858;2022-12-18T08:29:10;47.77;;;18.43;;
47155;SDS011;32908;52.344;16.858;2022-12-18T08:31:38;46.97;;;18.60;;
47155;SDS011;32908;52.344;16.858;2022-12-18T08:34:07;44.67;;;18.80;;
47155;SDS011;32908;52.344;16.858;2022-12-18T08:36:35;41.67;;;18.27;;
47155;SDS011;32908;52.344;16.858;2022-12-18T08:39:03;44.53;;;17.03;;
47155;SDS011;32908;52.344;16.858;2022-12-18T08:41:30;41.57;;;19.17;;
47155;SDS011;32908;52.344;16.858;2022-12-18T08:43:58;43.47;;;18.40;;
47155;SDS011;32908;52.344;16.858;2022-12-18T08:46:44;45.50;;;18.87;;
47155;SDS011;32908;52.344;16.858;2022-12-18T08:49:12;49.33;;;18.40;;
47155;SDS011;32908;52.344;16.858;2022-12-18T08:51:40;43.03;;;17.90;;
47155;SDS011;32908;52.344;16.858;2022-12-18T08:54:09;45.33;;;17.80;;
47155;SDS011;32908;52.344;16.858;2022-12-18T08:56:38;40.40;;;16.87;;
47155;SDS011;32908;52.344;16.858;2022-12-18T08:59:06;39.80;;;18.30;;
47155;SDS011;32908;52.344;16.858;2022-12-18T09:01:34;42.70;;;17.40;;
47155;SDS011;32908;52.344;16.858;2022-12-18T09:04:02;42.17;;;18.63;;
47155;SDS011;32908;52.344;16.858;2022-12-18T09:06:30;44.63;;;19.43;;
47155;SDS011;32908;52.344;16.858;2022-12-18T09:08:58;45.63;;;19.47;;
47155;SDS011;32908;52.344;16.858;2022-12-18T09:11:26;46.73;;;19.13;;
47155;SDS011;32908;52.344;16.858;2022-12-18T09:13:55;42.53;;;18.33;;
47155;SDS011;32908;52.344;16.858;2022-12-18T09:16:24;46.97;;;18.90;;
47155;SDS011;32908;52.344;16.858;2022-12-18T09:18:54;45.00;;;20.17;;
47155;SDS011;32908;52.344;16.858;2022-12-18T09:21:26;53.83;;;21.50;;
47155;SDS011;32908;52.344;16.858;2022-12-18T09:23:55;49.90;;;21.27;;
47155;SDS011;32908;52.344;16.858;2022-12-18T09:26:23;56.73;;;23.63;;
47155;SDS011;32908;52.344;16.858;2022-12-18T09:28:52;53.20;;;23.67;;
47155;SDS011;32908;52.344;16.858;2022-12-18T09:31:21;56.67;;;24.67;;
47155;SDS011;32908;52.344;16.858;2022-12-18T09:33:49;56.10;;;25.73;;
47155;SDS011;32908;52.344;16.858;2022-12-18T09:36:17;61.20;;;26.37;;
47155;SDS011;32908;52.344;16.858;2022-12-18T09:38:45;63.63;;;27.70;;
47155;SDS011;32908;52.344;16.858;2022-12-18T09:41:19;71.83;;;30.37;;
47155;SDS011;32908;52.344;16.858;2022-12-18T09:43:57;67.67;;;29.33;;
47155;SDS011;32908;52.344;16.858;2022-12-18T09:46:28;66.73;;;28.23;;
47155;SDS011;32908;52.344;16.858;2022-12-18T09:48:58;67.03;;;30.03;;
47155;SDS011;32908;52.344;16.858;2022-12-18T09:51:29;66.73;;;31.33;;
47155;SDS011;32908;52.344;16.858;2022-12-18T09:54:00;58.63;;;26.90;;
47155;SDS011;32908;52.344;16.858;2022-12-18T09:56:31;58.03;;;25.93;;
47155;SDS011;32908;52.344;16.858;2022-12-18T09:59:03;55.97;;;26.30;;
47155;SDS011;32908;52.344;16.858;2022-12-18T10:01:32;54.13;;;26.13;;
47155;SDS011;32908;52.344;16.858;2022-12-18T10:04:00;56.00;;;24.93;;
47155;SDS011;32908;52.344;16.858;2022-12-18T10:06:28;51.87;;;24.23;;
47155;SDS011;32908;52.344;16.858;2022-12-18T10:09:02;51.43;;;23.00;;
47155;SDS011;32908;52.344;16.858;2022-12-18T10:11:38;50.07;;;23.17;;
47155;SDS011;32908;52.344;16.858;2022-12-18T10:14:12;45.57;;;22.20;;
47155;SDS011;32908;52.344;16.858;2022-12-18T10:16:47;49.40;;;23.10;;
47155;SDS011;32908;52.344;16.858;2022-12-18T10:19:23;46.80;;;21.07;;
47155;SDS011;32908;52.344;16.858;2022-12-18T10:22:08;42.10;;;22.00;;
47155;SDS011;32908;52.344;16.858;2022-12-18T10:24:42;45.90;;;22.03;;
47155;SDS011;32908;52.344;16.858;2022-12-18T10:27:13;42.33;;;20.27;;
47155;SDS011;32908;52.344;16.858;2022-12-18T10:29:42;44.23;;;21.83;;
47155;SDS011;32908;52.344;16.858;2022-12-18T10:32:13;50.73;;;22.47;;
47155;SDS011;32908;52.344;16.858;2022-12-18T10:34:43;41.80;;;21.23;;
47155;SDS011;32908;52.344;16.858;2022-12-18T10:37:13;45.17;;;21.37;;
47155;SDS011;32908;52.344;16.858;2022-12-18T10:39:44;46.07;;;21.50;;
47155;SDS011;32908;52.344;16.858;2022-12-18T10:42:15;45.67;;;23.37;;
47155;SDS011;32908;52.344;16.858;2022-12-18T10:44:45;48.00;;;22.07;;
47155;SDS011;32908;52.344;16.858;2022-12-18T10:47:14;47.00;;;21.63;;
47155;SDS011;32908;52.344;16.858;2022-12-18T10:49:46;51.77;;;24.43;;
47155;SDS011;32908;52.344;16.858;2022-12-18T10:52:17;46.50;;;22.65;;
47155;SDS011;32908;52.344;16.858;2022-12-18T10:54:50;42.23;;;21.20;;
47155;SDS011;32908;52.344;16.858;2022-12-18T11:02:52;38.43;;;20.43;;
47155;SDS011;32908;52.344;16.858;2022-12-18T11:05:24;38.60;;;19.20;;
47155;SDS011;32908;52.344;16.858;2022-12-18T11:07:54;40.10;;;20.13;;
47155;SDS011;32908;52.344;16.858;2022-12-18T11:10:23;37.67;;;18.80;;
47155;SDS011;32908;52.344;16.858;2022-12-18T11:12:55;33.30;;;17.60;;
47155;SDS011;32908;52.344;16.858;2022-12-18T11:15:25;35.43;;;16.73;;
47155;SDS011;32908;52.344;16.858;2022-12-18T11:17:55;36.70;;;16.60;;
47155;SDS011;32908;52.344;16.858;2022-12-18T11:20:26;33.97;;;17.53;;
47155;SDS011;32908;52.344;16.858;2022-12-18T11:22:58;36.83;;;18.30;;
47155;SDS011;32908;52.344;16.858;2022-12-18T11:25:27;48.73;;;23.40;;
47155;SDS011;32908;52.344;16.858;2022-12-18T11:27:56;54.07;;;25.67;;
47155;SDS011;32908;52.344;16.858;2022-12-18T11:30:26;52.00;;;25.87;;
47155;SDS011;32908;52.344;16.858;2022-12-18T11:32:56;47.13;;;23.97;;
47155;SDS011;32908;52.344;16.858;2022-12-18T11:35:33;54.43;;;25.33;;
47155;SDS011;32908;52.344;16.858;2022-12-18T11:38:05;50.05;;;25.00;;
47155;SDS011;32908;52.344;16.858;2022-12-18T11:40:38;51.83;;;23.97;;
47155;SDS011;32908;52.344;16.858;2022-12-18T11:43:09;43.90;;;23.37;;
47155;SDS011;32908;52.344;16.858;2022-12-18T11:45:41;53.73;;;25.50;;
47155;SDS011;32908;52.344;16.858;2022-12-18T11:48:14;46.87;;;24.00;;
47155;SDS011;32908;52.344;16.858;2022-12-18T11:50:46;48.67;;;25.57;;
47155;SDS011;32908;52.344;16.858;2022-12-18T11:53:19;47.67;;;24.27;;
47155;SDS011;32908;52.344;16.858;2022-12-18T11:55:49;52.27;;;24.93;;
47155;SDS011;32908;52.344;16.858;2022-12-18T11:58:36;47.43;;;24.13;;
47155;SDS011;32908;52.344;16.858;2022-12-18T12:01:16;45.20;;;23.33;;
47155;SDS011;32908;52.344;16.858;2022-12-18T12:03:59;46.47;;;23.53;;
47155;SDS011;32908;52.344;16.858;2022-12-18T12:06:37;46.77;;;23.30;;
47155;SDS011;32908;52.344;16.858;2022-12-18T12:09:11;43.70;;;22.23;;
47155;SDS011;32908;52.344;16.858;2022-12-18T12:11:47;38.33;;;20.70;;
47155;SDS011;32908;52.344;16.858;2022-12-18T12:14:25;41.90;;;21.23;;
47155;SDS011;32908;52.344;16.858;2022-12-18T12:16:59;44.00;;;19.60;;
47155;SDS011;32908;52.344;16.858;2022-12-18T12:19:33;46.20;;;20.67;;
47155;SDS011;32908;52.344;16.858;2022-12-18T12:22:07;40.17;;;19.00;;
47155;SDS011;32908;52.344;16.858;2022-12-18T12:24:41;41.40;;;20.80;;
47155;SDS011;32908;52.344;16.858;2022-12-18T12:27:16;42.40;;;20.87;;
47155;SDS011;32908;52.344;16.858;2022-12-18T12:29:50;41.33;;;20.73;;
47155;SDS011;32908;52.344;16.858;2022-12-18T12:32:28;58.90;;;25.07;;
47155;SDS011;32908;52.344;16.858;2022-12-18T12:35:07;61.97;;;26.50;;
47155;SDS011;32908;52.344;16.858;2022-12-18T12:37:44;71.13;;;29.37;;
47155;SDS011;32908;52.344;16.858;2022-12-18T12:40:18;70.87;;;31.63;;
47155;SDS011;32908;52.344;16.858;2022-12-18T12:42:47;94.30;;;36.30;;
47155;SDS011;32908;52.344;16.858;2022-12-18T12:45:38;112.33;;;38.53;;
47155;SDS011;32908;52.344;16.858;2022-12-18T12:48:11;108.97;;;38.10;;
47155;SDS011;32908;52.344;16.858;2022-12-18T12:50:44;102.23;;;37.83;;
47155;SDS011;32908;52.344;16.858;2022-12-18T12:53:14;110.63;;;38.93;;
47155;SDS011;32908;52.344;16.858;2022-12-18T12:55:47;109.83;;;39.73;;
47155;SDS011;32908;52.344;16.858;2022-12-18T12:58:16;109.57;;;41.43;;
47155;SDS011;32908;52.344;16.858;2022-12-18T13:00:49;105.53;;;38.80;;
47155;SDS011;32908;52.344;16.858;2022-12-18T13:03:26;105.60;;;39.13;;
47155;SDS011;32908;52.344;16.858;2022-12-18T13:05:58;91.87;;;34.73;;
47155;SDS011;32908;52.344;16.858;2022-12-18T13:08:30;104.03;;;41.53;;
47155;SDS011;32908;52.344;16.858;2022-12-18T13:10:59;93.70;;;37.20;;
47155;SDS011;32908;52.344;16.858;2022-12-18T13:13:51;86.97;;;34.73;;
47155;SDS011;32908;52.344;16.858;2022-12-18T13:16:20;89.10;;;37.57;;
47155;SDS011;32908;52.344;16.858;2022-12-18T13:18:50;78.57;;;32.07;;
47155;SDS011;32908;52.344;16.858;2022-12-18T13:21:21;74.87;;;33.57;;
47155;SDS011;32908;52.344;16.858;2022-12-18T13:23:51;78.10;;;33.47;;
47155;SDS011;32908;52.344;16.858;2022-12-18T13:26:28;72.63;;;30.67;;
47155;SDS011;32908;52.344;16.858;2022-12-18T13:29:00;80.77;;;33.50;;
47155;SDS011;32908;52.344;16.858;2022-12-18T13:34:33;100.67;;;42.33;;
47155;SDS011;32908;52.344;16.858;2022-12-18T13:43:24;81.60;;;32.77;;
47155;SDS011;32908;52.344;16.858;2022-12-18T13:46:17;74.80;;;31.37;;
47155;SDS011;32908;52.344;16.858;2022-12-18T13:48:51;82.60;;;34.60;;
47155;SDS011;32908;52.344;16.858;2022-12-18T13:51:20;97.97;;;39.80;;
47155;SDS011;32908;52.344;16.858;2022-12-18T13:53:49;133.13;;;46.70;;
47155;SDS011;32908;52.344;16.858;2022-12-18T13:56:20;123.37;;;45.53;;
47155;SDS011;32908;52.344;16.858;2022-12-18T13:59:03;122.20;;;45.03;;
47155;SDS011;32908;52.344;16.858;2022-12-18T14:01:35;101.47;;;40.87;;
47155;SDS011;32908;52.344;16.858;2022-12-18T14:04:09;114.20;;;38.60;;
47155;SDS011;32908;52.344;16.858;2022-12-18T14:06:38;114.07;;;40.87;;
47155;SDS011;32908;52.344;16.858;2022-12-18T14:09:08;95.07;;;35.03;;
47155;SDS011;32908;52.344;16.858;2022-12-18T14:11:40;91.13;;;36.43;;
47155;SDS011;32908;52.344;16.858;2022-12-18T14:14:08;88.17;;;34.87;;
47155;SDS011;32908;52.344;16.858;2022-12-18T14:16:37;75.50;;;31.03;;
47155;SDS011;32908;52.344;16.858;2022-12-18T14:19:05;88.23;;;35.07;;
47155;SDS011;32908;52.344;16.858;2022-12-18T14:21:38;77.83;;;32.57;;
47155;SDS011;32908;52.344;16.858;2022-12-18T14:24:12;75.87;;;32.03;;
47155;SDS011;32908;52.344;16.858;2022-12-18T14:26:41;78.60;;;33.53;;
47155;SDS011;32908;52.344;16.858;2022-12-18T14:29:20;83.00;;;35.60;;
47155;SDS011;32908;52.344;16.858;2022-12-18T14:32:09;74.10;;;31.93;;
47155;SDS011;32908;52.344;16.858;2022-12-18T14:34:38;72.07;;;33.33;;
47155;SDS011;32908;52.344;16.858;2022-12-18T14:37:07;74.27;;;32.20;;
47155;SDS011;32908;52.344;16.858;2022-12-18T14:39:37;72.47;;;33.17;;
47155;SDS011;32908;52.344;16.858;2022-12-18T14:42:05;69.10;;;30.23;;